Offutt Air Force Base Omaha US
ICAO: KOFF
IATA: OFF
Category: Medium
Scheduled Services: No

Elevation: 1052 ft
TransAlt. 18000 ft.

Airport Communications:
OMAHA APP/DEP:118
ATIS:126.025
GND:121.7
PMSV METRO:22.74
COMD POST:31.1
PTD:37.94
TWR:123.7

KOFF Zoom In..

If you have problems with the map follow the link
https://www.worldairports.se/pages/airport.php?
ICAO=KOFF

Runways:

(A) RW 12 length 11702 ft width 150 ft
ILS 111.70 / hdg 124

(B) RW 30 length 11702 ft width 150 ft
ILS 109.50 / hdg 304

Location; KOFF
Day. 14 / Time. 11.56 Zulu
* Altimeter: 30.42
* Temperature: -06° c. -21.2°f.
* Wind from: 120° Speed 05 kn.
Dewpoint: -06° c.
Visibility: 10 Statute Miles.
Clouds: Clear (automated report).

KOFF 141156Z AUTO 12005KT 10SM CLR M06/M06 A3042 RMK AO2 SLP321 T10581059 11051 21067 56006 $


Wind From 120°
Speed 05 kn.

 
 
jpsmedia.com for Web Design worldairports.se 2018   terms of use